Latest Weather Observations for Coolangatta

IDQ60901

Issued at 4:21 pm EST Sunday 23 September 2018 (issued every 10 minutes, with the page automatically refreshed every 10 minutes)

About weather observations | Map of Brisbane area stations | Latest observations for Brisbane area | Other Formats
Station Details ID: 040717 Name: COOLANGATTA Lat: -28.17 Lon: 153.51 Height: 4.0 m
Data from the previous 72 hours. | See also: Recent months at Coolangatta
Date/Time
EST
Temp
°C
App
Temp
°C
Dew
Point
°C
Rel
Hum
%
Delta-T
°C
Wind Press
QNH
hPa
Press
MSL
hPa
Rain since
9am
mm
Dir  Spd
km/h
Gust
km/h
Spd
kts
Gust
kts
23/04:00pm 21.7 19.1 13.3 59 4.8 NE 19 22 10 12 1020.4 1020.4 0.0
23/03:30pm 22.1 20.0 13.7 59 4.9 NNE 17 20 9 11 1020.3 1020.3 0.0
23/03:00pm 22.0 19.3 12.8 56 5.2 NE 19 24 10 13 1020.6 1020.6 0.0
23/02:30pm 22.6 20.0 13.7 57 5.2 NNE 20 24 11 13 1020.6 1020.6 0.0
23/02:00pm 22.6 19.9 13.4 56 5.3 NE 20 26 11 14 1020.8 1020.8 0.0
23/01:30pm 22.9 20.1 13.1 54 5.6 NNE 20 26 11 14 1021.0 1021.0 0.0
23/01:00pm 22.4 19.0 12.6 54 5.6 NE 22 28 12 15 1021.3 1021.3 0.0
23/12:30pm 23.2 20.3 12.8 52 6.0 NNE 20 26 11 14 1021.8 1021.8 0.0
23/12:00pm 22.8 19.7 13.3 55 5.5 NNE 22 26 12 14 1022.2 1022.2 0.0
23/11:30am 22.8 19.4 12.4 52 5.9 NNE 22 26 12 14 1022.7 1022.7 0.0
23/11:00am 22.7 19.3 12.6 53 5.7 NNE 22 26 12 14 1023.1 1023.1 0.0
23/10:30am 22.8 19.9 13.0 54 5.6 NNE 20 26 11 14 1023.5 1023.5 0.0
23/10:00am 22.2 19.4 12.7 55 5.4 NNE 19 24 10 13 1023.9 1023.9 0.0
23/09:30am 21.9 19.0 12.2 54 5.5 N 19 24 10 13 1024.1 1024.1 0.0
23/09:00am 21.7 19.2 12.3 55 5.3 NNW 17 22 9 12 1024.2 1024.2 0.0
23/08:30am 20.7 18.5 12.1 58 4.8 NW 15 20 8 11 1024.5 1024.5 0.0
23/08:00am 20.2 18.9 12.4 61 4.4 NW 11 15 6 8 1024.5 1024.5 0.0
23/07:30am 17.7 17.2 12.8 73 2.7 WSW 7 9 4 5 1024.6 1024.6 0.0
23/07:00am 15.0 16.2 13.9 93 0.6 CALM 0 6 0 3 1024.7 1024.7 0.0
23/06:30am 13.2 12.3 12.6 96 0.3 WSW 9 11 5 6 1024.7 1024.7 0.0
23/06:00am 11.9 12.3 11.3 96 0.3 CALM 0 0 0 0 1024.4 1024.4 0.0
23/05:30am 11.4 10.3 10.6 95 0.4 WSW 7 9 4 5 1024.2 1024.2 0.0
23/05:00am 11.6 11.1 10.8 95 0.4 SSW 4 6 2 3 1024.0 1024.0 0.0
23/04:30am 12.4 11.8 11.8 96 0.3 SW 6 7 3 4 1023.9 1023.9 0.0
23/04:00am 11.9 12.3 11.1 95 0.4 CALM 0 0 0 0 1023.9 1023.9 0.0
23/03:30am 11.6 11.5 10.7 94 0.5 SW 2 6 1 3 1023.8 1023.8 0.0
23/03:00am 11.8 11.7 10.7 93 0.6 SW 2 6 1 3 1023.7 1023.7 0.0
23/02:30am 12.0 11.2 11.1 94 0.5 WSW 6 7 3 4 1023.8 1023.8 0.0
23/02:00am 11.2 11.3 10.0 92 0.6 CALM 0 0 0 0 1024.1 1024.1 0.0
23/01:30am 12.3 12.6 11.0 92 0.7 CALM 0 0 0 0 1024.5 1024.5 0.0
23/01:00am 12.6 13.0 11.3 92 0.7 CALM 0 0 0 0 1024.8 1024.8 0.0
23/12:30am 12.5 12.1 11.2 92 0.7 SW 4 9 2 5 1025.1 1025.1 0.0
23/12:00am 12.8 12.9 11.4 91 0.7 SW 2 7 1 4 1025.3 1025.3 0.0
 
Date/Time
EST
Temp
°C
App
Temp
°C
Dew
Point
°C
Rel
Hum
%
Delta-T
°C
Wind Press
QNH
hPa
Press
MSL
hPa
Rain since
9am
mm
Dir  Spd
km/h
Gust
km/h
Spd
kts
Gust
kts
22/11:30pm 12.7 13.0 10.9 89 0.9 CALM 0 0 0 0 1025.4 1025.4 0.0
22/11:00pm 13.0 13.0 11.1 88 1.0 SW 2 6 1 3 1025.6 1025.6 0.0
22/10:30pm 13.3 13.3 11.2 87 1.1 SW 2 7 1 4 1025.7 1025.7 0.0
22/10:00pm 13.8 14.0 12.0 89 1.0 SW 2 9 1 5 1025.8 1025.8 0.0
22/09:30pm 13.7 13.1 11.6 87 1.1 WSW 6 11 3 6 1025.9 1025.9 0.0
22/09:00pm 14.0 13.2 11.2 83 1.5 SW 6 7 3 4 1025.8 1025.8 0.0
22/08:30pm 14.7 14.2 12.0 84 1.5 WSW 6 7 3 4 1025.9 1025.9 0.0
22/08:00pm 15.3 14.6 12.1 81 1.7 SW 7 9 4 5 1025.7 1025.7 0.0
22/07:30pm 15.8 14.1 12.4 80 1.9 WSW 13 15 7 8 1025.6 1025.6 0.0
22/07:00pm 15.4 14.1 11.4 77 2.1 WSW 9 11 5 6 1025.2 1025.2 0.0
22/06:30pm 17.0 16.1 10.6 66 3.4 SSE 6 9 3 5 1025.0 1025.0 0.0
22/06:00pm 18.8 16.6 10.9 60 4.3 SE 13 15 7 8 1024.9 1024.9 0.0
22/05:30pm 19.5 16.9 10.8 57 4.7 ESE 15 24 8 13 1024.5 1024.5 0.0
22/05:00pm 19.7 16.6 11.5 59 4.5 SE 19 22 10 12 1024.4 1024.4 0.0
22/04:30pm 20.1 16.7 11.3 57 4.8 SE 20 28 11 15 1024.1 1024.1 0.0
22/04:00pm 20.6 16.4 11.2 55 5.1 SE 24 33 13 18 1024.0 1024.0 0.0
22/03:30pm 21.7 17.2 12.5 56 5.2 SE 28 35 15 19 1023.9 1023.9 0.0
22/03:00pm 21.6 16.5 13.0 58 4.9 SE 32 39 17 21 1023.9 1023.9 0.0
22/02:30pm 22.0 16.7 12.5 54 5.4 SE 32 41 17 22 1024.3 1024.3 0.0
22/02:00pm 22.4 17.6 11.5 50 6.1 SE 28 37 15 20 1024.7 1024.7 0.0
22/01:30pm 22.5 17.3 10.3 46 6.7 SE 28 35 15 19 1025.0 1025.0 0.0
22/01:00pm 22.6 17.9 10.7 47 6.5 SE 26 35 14 19 1025.2 1025.2 0.0
22/12:30pm 22.6 17.7 10.1 45 6.8 ESE 26 35 14 19 1025.5 1025.5 0.0
22/12:00pm 22.2 17.4 10.4 47 6.4 ESE 26 33 14 18 1026.0 1026.0 0.0
22/11:30am 23.0 18.6 10.4 45 6.9 ESE 24 35 13 19 1026.5 1026.5 0.0
22/11:00am 22.9 19.3 10.7 46 6.7 ESE 20 30 11 16 1027.0 1027.0 0.0
22/10:30am 20.9 19.0 11.8 56 5.1 SSE 13 20 7 11 1027.4 1027.4 0.0
22/10:00am 21.1 18.4 11.7 55 5.2 SSW 17 24 9 13 1027.8 1027.8 0.0
22/09:30am 21.2 18.4 11.5 54 5.4 S 17 24 9 13 1028.0 1028.0 0.0
22/09:00am 20.8 17.6 12.0 57 4.9 S 20 30 11 16 1028.0 1028.0 0.0
22/08:30am 20.0 16.9 11.5 58 4.7 S 19 28 10 15 1028.1 1028.1 0.0
22/08:00am 19.4 17.3 11.2 59 4.5 SSW 13 19 7 10 1027.9 1027.9 0.0
22/07:30am 18.9 16.5 11.5 62 4.1 SSW 15 20 8 11 1027.7 1027.7 0.0
22/07:00am 17.8 15.7 11.1 65 3.6 SSW 13 19 7 10 1027.6 1027.6 0.0
22/06:30am 16.5 14.3 10.8 69 3.0 SSW 13 20 7 11 1027.1 1027.1 0.0
22/06:00am 15.7 13.9 10.9 73 2.5 SSW 11 17 6 9 1026.9 1026.9 0.0
22/05:30am 15.3 13.6 11.1 76 2.2 S 11 19 6 10 1026.4 1026.4 0.0
22/05:00am 14.9 13.1 10.9 77 2.1 S 11 13 6 7 1026.2 1026.2 0.0
22/04:30am 15.3 13.5 10.9 75 2.3 SSW 11 19 6 10 1026.0 1026.0 0.0
22/04:00am 15.7 13.2 11.1 74 2.4 SSW 15 26 8 14 1025.9 1025.9 0.0
22/03:30am 15.8 13.8 11.4 75 2.4 SSW 13 20 7 11 1026.0 1026.0 0.0
22/03:00am 15.0 13.6 11.0 77 2.1 SSW 9 13 5 7 1025.9 1025.9 0.0
22/02:30am 15.3 14.1 11.7 79 1.9 SSW 9 17 5 9 1025.9 1025.9 0.0
22/02:00am 13.7 14.1 11.2 85 1.3 CALM 0 0 0 0 1026.0 1026.0 0.0
22/01:30am 13.9 14.2 10.9 82 1.6 CALM 0 0 0 0 1026.4 1026.4 0.0
22/01:00am 14.4 13.5 10.6 78 2.0 SW 6 9 3 5 1026.8 1026.8 0.0
22/12:30am 14.3 13.0 11.1 81 1.7 SW 9 13 5 7 1027.0 1027.0 0.0
22/12:00am 14.4 13.0 10.8 79 1.9 SW 9 13 5 7 1027.2 1027.2 0.0
 
Date/Time
EST
Temp
°C
App
Temp
°C
Dew
Point
°C
Rel
Hum
%
Delta-T
°C
Wind Press
QNH
hPa
Press
MSL
hPa
Rain since
9am
mm
Dir  Spd
km/h
Gust
km/h
Spd
kts
Gust
kts
21/11:30pm 14.8 13.7 10.8 77 2.1 SW 7 13 4 7 1027.3 1027.3 0.0
21/11:00pm 14.9 13.8 10.7 76 2.2 SW 7 11 4 6 1027.4 1027.4 0.0
21/10:30pm 15.7 13.9 10.7 72 2.7 SW 11 15 6 8 1027.3 1027.3 0.0
21/10:00pm 15.7 13.9 10.7 72 2.6 SSW 11 19 6 10 1027.2 1027.2 0.0
21/09:30pm 15.2 13.3 10.4 73 2.5 SSW 11 15 6 8 1027.1 1027.1 0.0
21/09:00pm 15.5 13.6 10.5 72 2.6 SSW 11 17 6 9 1027.1 1027.1 0.0
21/08:30pm 16.0 14.1 10.5 70 2.9 SW 11 15 6 8 1027.1 1027.1 0.0
21/08:00pm 16.0 14.0 10.3 69 3.0 SSW 11 17 6 9 1026.9 1026.9 0.0
21/07:30pm 16.1 13.8 10.6 70 2.9 SSW 13 17 7 9 1026.7 1026.7 0.0
21/07:00pm 16.5 15.0 10.6 68 3.1 SSW 9 13 5 7 1026.4 1026.4 0.0
21/06:30pm 16.9 13.9 10.7 67 3.3 S 17 22 9 12 1026.0 1026.0 0.0
21/06:00pm 17.4 14.1 11.0 66 3.4 S 19 28 10 15 1025.7 1025.7 0.0
21/05:30pm 17.8 14.3 10.9 64 3.7 SSE 20 30 11 16 1025.3 1025.3 0.0
21/05:00pm 18.8 14.8 10.6 59 4.4 SSE 22 39 12 21 1024.9 1024.9 0.0
21/04:30pm 19.6 15.5 10.0 54 5.1 SSE 22 32 12 17 1024.4 1024.4 0.0
21/04:00pm 20.2 14.7 10.6 54 5.2 SE 30 39 16 21 1024.3 1024.3 0.0
21/03:30pm 20.7 14.4 9.6 49 5.9 SE 33 43 18 23 1023.9 1023.9 0.0
21/03:00pm 21.1 14.8 9.7 48 6.1 SE 33 43 18 23 1023.8 1023.8 0.0
21/02:30pm 21.1 15.1 10.0 49 6.0 SE 32 41 17 22 1023.9 1023.9 0.0
21/02:00pm 21.3 14.8 8.9 45 6.5 SSE 33 44 18 24 1024.0 1024.0 0.0
21/01:30pm 21.7 15.6 9.9 47 6.4 SSE 32 43 17 23 1024.1 1024.1 0.0
21/01:01pm 21.4 15.0 8.7 44 6.7 SSE 32 52 17 28 1024.2 1024.2 0.0
21/01:00pm 22.0 15.7 8.9 43 6.9 SSE 32 46 17 25 1024.3 1024.3 0.0
21/12:30pm 21.4 14.7 8.3 43 6.9 SE 33 43 18 23 1024.6 1024.6 0.0
21/12:00pm 21.8 15.3 6.5 37 7.7 SSE 30 43 16 23 1024.8 1024.8 0.0
21/11:30am 21.9 15.4 8.1 41 7.2 SSE 32 46 17 25 1025.3 1025.3 0.0
21/11:00am 20.6 15.3 9.8 50 5.8 S 28 43 15 23 1025.6 1025.6 0.0
21/10:30am 21.2 15.9 9.8 48 6.1 SSE 28 48 15 26 1025.6 1025.6 0.0
21/10:21am 20.6 14.6 8.6 46 6.3 S 30 48 16 26 1025.6 1025.6 0.0
21/10:00am 20.5 14.4 8.2 45 6.4 S 30 46 16 25 1025.6 1025.6 0.0
21/09:30am 19.9 14.4 7.6 45 6.3 S 26 39 14 21 1025.7 1025.7 0.0
21/09:00am 19.3 14.7 9.8 54 5.0 S 24 35 13 19 1025.5 1025.5 0.0
21/08:30am 18.2 13.2 9.5 57 4.6 SSW 26 35 14 19 1025.3 1025.3 0.0
21/08:00am 17.4 13.5 9.3 59 4.2 SSW 20 30 11 16 1025.1 1025.1 0.0
21/07:30am 16.4 11.5 8.6 60 4.0 SSW 24 33 13 18 1024.7 1024.7 0.0
21/07:00am 15.4 11.3 8.6 64 3.4 SSW 20 30 11 16 1024.4 1024.4 0.0
21/06:30am 14.7 11.1 8.4 66 3.2 SSW 17 24 9 13 1024.0 1024.0 0.0
21/06:00am 13.9 9.9 8.3 69 2.8 SSW 19 28 10 15 1023.6 1023.6 0.0
21/05:30am 13.8 10.3 8.6 71 2.6 SSW 17 26 9 14 1023.2 1023.2 0.0
21/05:00am 14.0 10.0 9.0 72 2.5 SSW 20 33 11 18 1022.7 1022.7 0.0
21/04:30am 14.1 10.2 9.5 74 2.4 SSW 20 30 11 16 1022.2 1022.2 0.0
21/04:00am 14.1 10.5 9.7 75 2.3 SSW 19 26 10 14 1021.7 1021.7 0.0
21/03:30am 14.5 10.7 9.7 73 2.5 SSW 20 30 11 16 1021.8 1021.8 0.0
21/03:00am 14.5 10.7 9.7 73 2.5 SSW 20 33 11 18 1021.6 1021.6 0.0
21/02:30am 14.6 10.4 9.6 72 2.6 SSW 22 33 12 18 1021.3 1021.3 0.0
21/02:00am 14.4 10.3 10.0 75 2.3 S 22 33 12 18 1021.4 1021.4 0.0
21/01:30am 14.1 9.8 10.7 80 1.8 SSW 24 35 13 19 1021.6 1021.6 0.0
21/01:00am 14.4 10.1 10.6 78 2.0 S 24 37 13 20 1022.0 1022.0 0.0
21/12:30am 14.7 10.3 10.5 76 2.2 S 24 35 13 19 1021.9 1021.9 0.0
21/12:00am 15.0 10.8 11.0 77 2.1 SSW 24 35 13 19 1021.9 1021.9 0.0
 
Date/Time
EST
Temp
°C
App
Temp
°C
Dew
Point
°C
Rel
Hum
%
Delta-T
°C
Wind Press
QNH
hPa
Press
MSL
hPa
Rain since
9am
mm
Dir  Spd
km/h
Gust
km/h
Spd
kts
Gust
kts
20/11:30pm 15.2 11.0 11.2 77 2.1 S 24 35 13 19 1021.5 1021.5 0.0
20/11:00pm 15.4 12.4 12.0 80 1.8 S 19 30 10 16 1021.3 1021.3 0.0
20/10:30pm 15.7 12.2 12.1 79 2.0 S 22 32 12 17 1021.3 1021.3 0.0
20/10:00pm 15.6 11.6 11.8 78 2.1 SSW 24 30 13 16 1020.9 1020.9 0.0
20/09:30pm 15.8 12.5 11.6 76 2.3 S 20 30 11 16 1020.7 1020.7 0.0
20/09:00pm 16.2 12.9 12.7 80 1.9 S 22 35 12 19 1020.3 1020.3 0.0
20/08:30pm 16.9 13.7 13.2 79 2.1 S 22 39 12 21 1019.4 1019.4 0.0
20/08:27pm 16.9 14.1 13.2 79 2.1 S 20 39 11 21 1019.4 1019.4 0.0
20/08:00pm 16.8 15.2 12.9 78 2.2 SSW 13 20 7 11 1018.6 1018.6 0.0
20/07:30pm 17.2 14.0 11.9 71 2.9 S 20 33 11 18 1018.1 1018.1 0.0
20/07:00pm 18.3 15.2 13.4 73 2.8 S 22 33 12 18 1017.3 1017.3 0.0
20/06:30pm 19.0 17.7 13.8 72 3.0 S 13 19 7 10 1016.4 1016.4 0.0
20/06:00pm 18.9 17.2 13.7 72 3.0 SSE 15 20 8 11 1015.8 1015.8 0.0
20/05:30pm 19.3 17.3 13.9 71 3.1 SSE 17 24 9 13 1015.0 1015.0 0.0
20/05:00pm 19.7 17.0 13.6 68 3.5 SSE 20 26 11 14 1014.4 1014.4 0.0
20/04:30pm 20.5 18.1 13.9 66 3.8 SSE 19 26 10 14 1013.7 1013.7 0.0

Latest Capital City Observations: Canberra | Sydney | Melbourne | Brisbane | Adelaide | Perth | Hobart | Darwin

Other Formats:

Comma delimited format used in spreadsheet applications
http://www.bom.gov.au/fwo/IDQ60901/IDQ60901.94592.axf

JavaScript Object Notation format (JSON) in row-major order
http://www.bom.gov.au/fwo/IDQ60901/IDQ60901.94592.json